createdAt,value
2023-03-29T04:08:32.003Z,65.63
2023-03-29T04:11:37.495Z,63.66
2023-03-29T04:14:47.450Z,63.71
2023-03-29T04:17:49.986Z,62.71
2023-03-29T04:20:52.936Z,61.41
2023-03-29T04:23:56.654Z,61.23
2023-03-29T04:26:59.051Z,63.23
2023-03-29T04:30:02.044Z,62.04
2023-03-29T04:33:05.906Z,60.46
2023-03-29T04:36:09.303Z,60.68
2023-03-29T04:39:11.486Z,60.64
2023-03-29T04:42:14.635Z,61.40
2023-03-29T04:45:18.139Z,62.19
2023-03-29T04:48:22.418Z,63.11
2023-03-29T04:51:24.598Z,63.82
2023-03-29T04:54:27.319Z,63.28
2023-03-29T04:57:30.242Z,62.84
2023-03-29T05:00:34.084Z,63.25
2023-03-29T05:03:37.083Z,64.09
2023-03-29T05:06:41.094Z,63.37
2023-03-29T05:09:43.738Z,62.72
2023-03-29T05:12:46.994Z,62.72
2023-03-29T05:15:49.299Z,60.58
2023-03-29T05:18:51.863Z,60.36
2023-03-29T05:21:54.501Z,59.92
2023-03-29T05:24:57.499Z,59.77
2023-03-29T05:27:59.763Z,59.85
2023-03-29T05:31:04.884Z,59.29
2023-03-29T05:34:07.451Z,59.47
2023-03-29T05:37:10.693Z,57.76
2023-03-29T05:40:13.968Z,58.05
2023-03-29T05:43:17.193Z,58.03
2023-03-29T05:46:19.643Z,59.52
2023-03-29T05:49:22.635Z,56.72
2023-03-29T05:52:26.097Z,56.67
2023-03-29T05:55:28.494Z,55.94
2023-03-29T05:58:30.786Z,56.55
2023-03-29T06:01:34.034Z,55.38
2023-03-29T06:04:37.234Z,54.99
2023-03-29T06:07:42.417Z,54.09
2023-03-29T06:10:47.163Z,55.45
2023-03-29T06:13:50.135Z,53.47
2023-03-29T06:16:53.323Z,54.18
2023-03-29T06:19:55.885Z,54.82
2023-03-29T06:22:58.968Z,54.07
2023-03-29T06:26:01.775Z,54.17
2023-03-29T06:29:04.457Z,52.86
2023-03-29T06:32:06.866Z,53.30
2023-03-29T06:35:10.979Z,52.72
2023-03-29T06:38:15.054Z,52.49
2023-03-29T06:41:18.629Z,52.43
2023-03-29T06:44:22.976Z,52.33
2023-03-29T06:47:30.839Z,52.21
2023-03-29T06:50:34.097Z,52.24
2023-03-29T06:53:37.174Z,52.48
2023-03-29T06:56:39.612Z,51.72
2023-03-29T06:59:43.368Z,50.61
2023-03-29T07:02:46.491Z,50.65
2023-03-29T07:05:51.895Z,49.83
2023-03-29T07:08:59.631Z,49.62
2023-03-29T07:12:02.730Z,49.02
2023-03-29T07:15:05.448Z,51.02
2023-03-29T07:18:14.969Z,49.83
2023-03-29T07:21:17.492Z,48.93
2023-03-29T07:24:21.304Z,48.70
2023-03-29T07:27:23.682Z,50.37
2023-03-29T07:30:31.622Z,48.44
2023-03-29T07:33:39.485Z,48.66
2023-03-29T07:36:43.650Z,48.73
2023-03-29T07:39:45.917Z,49.00
2023-03-29T07:42:56.459Z,47.13
2023-03-29T07:46:04.629Z,49.21
2023-03-29T07:49:08.140Z,47.74
2023-03-29T07:52:10.401Z,45.53
2023-03-29T07:55:14.373Z,45.85
2023-03-29T07:58:20.698Z,46.85
2023-03-29T08:01:24.763Z,45.65
2023-03-29T08:04:30.972Z,46.13
2023-03-29T08:07:44.154Z,44.22
2023-03-29T08:10:47.168Z,46.11
2023-03-29T08:13:49.447Z,45.83
2023-03-29T08:16:54.311Z,44.91
2023-03-29T08:19:56.445Z,43.71
2023-03-29T08:22:59.276Z,44.17
2023-03-29T08:26:02.289Z,44.81
2023-03-29T08:29:04.785Z,44.56
2023-03-29T08:32:07.117Z,42.31
2023-03-29T08:35:10.073Z,41.52
2023-03-29T08:38:12.723Z,42.89
2023-03-29T08:41:33.889Z,39.95
2023-03-29T08:45:07.737Z,38.35
2023-03-29T08:48:16.389Z,39.75
2023-03-29T08:51:31.615Z,38.65
2023-03-29T08:54:41.513Z,40.09
2023-03-29T08:57:49.680Z,39.67
2023-03-29T09:00:57.330Z,38.32
2023-03-29T09:04:09.014Z,38.40
2023-03-29T09:07:14.443Z,37.63
2023-03-29T09:10:20.501Z,39.16
2023-03-29T09:13:39.551Z,40.08
2023-03-29T09:17:04.919Z,38.05
2023-03-29T09:20:32.050Z,37.07
2023-03-29T09:23:50.495Z,37.31
2023-03-29T09:26:59.039Z,38.98
2023-03-29T09:30:32.056Z,37.65
2023-03-29T09:33:43.153Z,36.41
2023-03-29T09:36:54.640Z,38.23
2023-03-29T09:39:57.677Z,37.77
2023-03-29T09:43:04.166Z,37.70
2023-03-29T09:46:16.186Z,37.07
2023-03-29T09:49:58.845Z,37.00
2023-03-29T09:53:08.247Z,38.46
2023-03-29T09:56:11.123Z,38.63
2023-03-29T09:59:14.007Z,36.24
2023-03-29T10:02:19.992Z,36.01
2023-03-29T10:05:25.569Z,37.05
2023-03-29T10:08:39.561Z,38.34
2023-03-29T10:11:47.684Z,37.25
2023-03-29T10:14:53.571Z,37.00
2023-03-29T10:18:03.124Z,37.07
2023-03-29T10:21:05.909Z,37.83
2023-03-29T10:24:09.441Z,36.75
2023-03-29T10:27:11.753Z,36.18
2023-03-29T10:30:24.038Z,36.26
2023-03-29T10:33:31.488Z,36.69
2023-03-29T10:36:34.252Z,36.99
2023-03-29T10:39:37.157Z,36.08
2023-03-29T10:42:49.868Z,35.91
2023-03-29T10:45:54.866Z,37.63
2023-03-29T10:48:59.947Z,36.83
2023-03-29T10:52:02.103Z,36.68
2023-03-29T10:55:05.174Z,37.92
2023-03-29T10:58:20.353Z,36.49
2023-03-29T11:01:31.610Z,36.83
2023-03-29T11:04:47.547Z,37.76
2023-03-29T11:08:20.721Z,40.28
2023-03-29T11:11:28.749Z,37.30
2023-03-29T11:15:08.157Z,37.03
2023-03-29T11:18:22.353Z,36.87
2023-03-29T11:21:28.114Z,38.45
2023-03-29T11:24:39.286Z,40.79
2023-03-29T11:27:55.210Z,38.09
2023-03-29T11:31:28.985Z,39.76
2023-03-29T11:35:03.256Z,37.85
2023-03-29T11:38:19.041Z,36.37
2023-03-29T11:41:32.052Z,35.52
2023-03-29T11:44:35.947Z,34.98
2023-03-29T11:47:40.946Z,35.11
2023-03-29T11:50:51.068Z,36.96
2023-03-29T11:53:57.466Z,36.65
2023-03-29T11:57:10.166Z,35.61
2023-03-29T12:00:22.125Z,35.44
2023-03-29T12:03:50.528Z,37.55
2023-03-29T12:07:09.559Z,35.63
2023-03-29T12:10:20.763Z,35.98
2023-03-29T12:13:33.793Z,35.92
2023-03-29T12:16:50.017Z,36.96
2023-03-29T12:20:19.476Z,35.47
2023-03-29T12:23:22.511Z,34.07
2023-03-29T12:30:49.235Z,35.03
2023-03-29T12:34:04.787Z,34.50
2023-03-29T12:37:27.643Z,35.45
2023-03-29T12:40:56.949Z,36.73
2023-03-29T12:44:03.881Z,37.04
2023-03-29T12:47:06.413Z,37.40
2023-03-29T12:50:36.937Z,36.34
2023-03-29T12:53:41.946Z,35.78
2023-03-29T12:56:56.612Z,34.37
2023-03-29T13:00:26.586Z,35.21
2023-03-29T13:03:40.159Z,36.81
2023-03-29T13:06:48.094Z,36.33
2023-03-29T13:10:25.275Z,36.10
2023-03-29T13:13:36.665Z,36.84
2023-03-29T13:16:41.055Z,37.68
2023-03-29T13:20:02.148Z,36.89
2023-03-29T13:23:07.583Z,37.31
2023-03-29T13:26:28.715Z,37.85
2023-03-29T13:29:49.835Z,37.52
2023-03-29T13:33:22.748Z,35.87
2023-03-29T13:36:41.138Z,36.46
2023-03-29T13:39:54.577Z,36.81
2023-03-29T13:43:11.024Z,35.71
2023-03-29T13:46:23.748Z,36.62
2023-03-29T13:49:29.429Z,35.22
2023-03-29T13:52:40.134Z,35.30
2023-03-29T13:55:52.212Z,38.35
2023-03-29T13:59:03.565Z,36.56
2023-03-29T14:02:06.516Z,36.76
2023-03-29T14:05:13.536Z,36.06
2023-03-29T14:08:27.241Z,36.94
2023-03-29T14:11:31.046Z,36.87
2023-03-29T14:14:33.329Z,37.12
2023-03-29T14:17:36.952Z,37.01
2023-03-29T14:20:44.038Z,37.61
2023-03-29T14:23:53.768Z,39.19
2023-03-29T14:26:55.843Z,40.23
2023-03-29T14:29:58.544Z,39.82
2023-03-29T14:33:04.911Z,40.22
2023-03-29T14:36:16.557Z,39.47
2023-03-29T14:39:21.638Z,40.03
2023-03-29T14:42:26.778Z,39.24
2023-03-29T14:45:29.131Z,40.27
2023-03-29T14:48:33.190Z,38.95
2023-03-29T14:51:35.970Z,39.60
2023-03-29T14:54:42.440Z,38.83
2023-03-29T14:57:44.540Z,39.50
2023-03-29T15:00:50.291Z,40.23
2023-03-29T15:04:01.439Z,39.50
2023-03-29T15:07:05.006Z,38.94
2023-03-29T15:10:08.150Z,39.22
2023-03-29T15:13:21.646Z,39.64
2023-03-29T15:16:23.865Z,39.49
2023-03-29T15:19:27.019Z,40.24
2023-03-29T15:22:33.527Z,41.00
2023-03-29T15:25:48.878Z,41.20
2023-03-29T15:28:57.512Z,39.97
2023-03-29T15:31:59.906Z,40.49
2023-03-29T15:35:05.551Z,40.67
2023-03-29T15:38:12.245Z,41.93
